facebook youtube

Vrsac

Vršac International Airport (Serbian: Међународни аеродром Вршац or Međunarodni aerodrom Vršac) (IATA: VRC, ICAO: LYVR) is one of Serbia's busiest sport airports and Serbia's fourth international airport since December 28, 2006. The airport is mainly utilized for air-taxi operations, pilot training, basic aircraft maintenance, and agricultural aviation. Vršac Airport is one of the most recognized European training centers and is the home to the Jat Airways training centre. JAT Flight Academy in Vršac has its own program based on over 50 years of experience in training pilots for commercial air transport. In its long tradition of pilot training, Jat Flight Academy has educated 70%+ of pilots flying today for the national air carrier - Jat Airways. The airport also includes a state of the art flight simulator system.

ICAO: LYVR
Country: Serbia
Latitude: 45.1469
Longitude: 21.3099
Charts Link
No Image Available!
LYVR 290730Z 18006KT 150V210 CAVOK 18/12 Q1017 NOSIG
Runways
Runway Magnetic Bearing Dimensions Surface
01L 008° 815m x 25m Grass
01R 008° 1000m x 41m Asphalt
16 157° 545m x 30m Grass
19L 188° 1000m x 41m Asphalt
19R 188° 815m x 25m Grass
34 337° 545m x 30m Grass
Air Traffic Control Stations
Position Identifier Callsign Frequency (MHz) Note
LYVR_TWR Vrsac Tower 118.60 N/A
LYVR_APP Vrsac Approach 125.05 N/A
Navigational Aids
Type Identifier Frequency Note
NDB VRA 294 MHz Vrsac NDB/Used for NDB Approaches